首页
METAR-TAF:

METAR-TAF

机场 :

West Bend Municipal Airport

西本德, 威斯康辛州, 美国

纬度: 43-25-20N, 经度: 088-07-41W, 海拔: 270米

当前天气观测

该预报发布于27分钟前的20:35 UTC
风速11节,风向西转西北,有时为20节阵风
温度 21°C
湿度 40%
气压 1015 hPa
能見度: 16.1公里
散云层高于6000英尺

METAR: KETB 232035Z AUTO 30011G20KT 10SM SCT060 21/07 A2997 RMK AO2

时间: 16:02 (21:02 UTC)


TAF: 丢失

超过4000个机场的气象观测和天气预报(METAR&TAF报告)。

可查询的气象台以黄色和红色小点在地图上表示。

将鼠标移到小点上方,可查看气象台名称。

然后点击查看天气观测和预报。

如需切换地图:点击带黑十字的绿色按钮放大地图;点击带横线的绿色按钮缩小地图;或者点击绿色箭头查看邻近地区的地图。


METAR-TAF: